PGUM/GUM METAR and TAF weather

Enter ICAO airport designator
Station Type Date Time Source
PGUM METAR 2019/12/09 00:34 UTC NOAA

PGUM 090034Z 30003KT 10SM BKN023 BKN028 27/23 A2986 RMK AO2 T02720228


Station Type Date Time Source
PGUM Decoded METAR 2019/12/09 00:34 UTC NOAA

Agana, Guam International Airport, GU, United States (PGUM) 13-29N 144-48E
Dec 08, 2019 - 07:34 PM EST / 2019.12.09 0034 UTC
Wind: from the WNW (300 degrees) at 3 MPH (3 KT):0
Visibility: 10 mile(s):0
Sky conditions: mostly cloudy
Temperature: 81.0 F (27.2 C)
Dew Point: 73.0 F (22.8 C)
Relative Humidity: 76%
Pressure (altimeter): 29.86 in. Hg (1011 hPa)
ob: PGUM 090034Z 30003KT 10SM BKN023 BKN028 27/23 A2986 RMK AO2 T02720228
cycle: 0

Station Type Date Time Source
PGUM TAF 2019/12/08 18:34 UTC NOAA

TAF PGUM 081729Z 0818/0924 06007KT P6SM VCSH FEW020 SCT050

Example: see airport list